createdAt,value
2023-05-20T00:02:23.062Z,8.48
2023-05-20T00:04:50.329Z,7.78
2023-05-20T00:07:17.784Z,8.30
2023-05-20T00:09:45.582Z,7.88
2023-05-20T00:12:12.856Z,7.78
2023-05-20T00:14:39.959Z,8.10
2023-05-20T00:17:07.480Z,7.53
2023-05-20T00:19:34.553Z,7.63
2023-05-20T00:22:02.789Z,8.55
2023-05-20T00:24:29.773Z,6.88
2023-05-20T00:26:57.047Z,6.53
2023-05-20T00:29:24.056Z,7.60
2023-05-20T00:31:51.460Z,6.65
2023-05-20T00:34:18.587Z,5.88
2023-05-20T00:36:46.170Z,6.75
2023-05-20T00:39:13.218Z,6.72
2023-05-20T00:41:40.829Z,6.10
2023-05-20T00:44:07.839Z,7.40
2023-05-20T00:46:36.173Z,6.78
2023-05-20T00:49:03.296Z,6.57
2023-05-20T00:51:31.169Z,6.22
2023-05-20T00:53:58.922Z,6.22
2023-05-20T00:56:26.615Z,5.95
2023-05-20T00:58:53.919Z,6.25
2023-05-20T01:01:21.747Z,7.50
2023-05-20T01:03:49.218Z,6.35
2023-05-20T01:06:16.591Z,6.47
2023-05-20T01:08:43.654Z,5.30
2023-05-20T01:11:35.088Z,6.40
2023-05-20T01:14:07.756Z,6.05
2023-05-20T01:19:04.054Z,5.82
2023-05-20T01:21:32.395Z,6.25
2023-05-20T01:24:01.782Z,5.68
2023-05-20T01:26:29.054Z,5.63
2023-05-20T01:28:58.036Z,5.40
2023-05-20T01:31:29.753Z,5.72
2023-05-20T01:33:59.751Z,5.32
2023-05-20T01:36:28.601Z,5.90
2023-05-20T01:38:57.246Z,4.63
2023-05-20T01:41:26.994Z,5.18
2023-05-20T01:43:55.557Z,5.43
2023-05-20T01:46:22.978Z,5.05
2023-05-20T01:48:49.939Z,5.50
2023-05-20T01:51:17.883Z,5.25
2023-05-20T01:53:44.987Z,6.22
2023-05-20T01:56:12.231Z,4.97
2023-05-20T01:58:39.286Z,4.65
2023-05-20T02:01:06.596Z,5.20
2023-05-20T02:03:33.615Z,4.75
2023-05-20T02:06:00.903Z,5.10
2023-05-20T02:08:28.006Z,5.30
2023-05-20T02:10:55.479Z,4.72
2023-05-20T02:13:22.428Z,4.60
2023-05-20T02:15:50.873Z,4.72
2023-05-20T02:18:18.797Z,4.65
2023-05-20T02:20:46.758Z,4.70
2023-05-20T02:23:13.791Z,4.30
2023-05-20T02:25:41.286Z,4.15
2023-05-20T02:28:10.724Z,4.78
2023-05-20T02:30:41.193Z,4.00
2023-05-20T02:33:09.821Z,4.57
2023-05-20T02:35:37.498Z,3.85
2023-05-20T02:38:04.446Z,4.25
2023-05-20T02:40:31.978Z,4.70
2023-05-20T02:43:01.867Z,3.25
2023-05-20T02:45:29.614Z,3.28
2023-05-20T02:47:56.790Z,3.85
2023-05-20T02:50:24.060Z,3.10
2023-05-20T02:52:51.045Z,3.65
2023-05-20T02:55:18.424Z,3.38
2023-05-20T02:57:45.445Z,3.80
2023-05-20T03:00:13.659Z,3.25
2023-05-20T03:02:40.822Z,3.33
2023-05-20T03:05:08.510Z,3.33
2023-05-20T03:07:36.484Z,3.83
2023-05-20T03:10:05.038Z,3.47
2023-05-20T03:12:32.125Z,3.72
2023-05-20T03:15:00.457Z,3.72
2023-05-20T03:17:27.551Z,3.45
2023-05-20T03:19:55.071Z,3.50
2023-05-20T03:22:22.076Z,3.38
2023-05-20T03:24:49.388Z,3.15
2023-05-20T03:27:16.372Z,3.58
2023-05-20T03:29:44.207Z,4.10
2023-05-20T03:32:11.254Z,3.47
2023-05-20T03:34:38.611Z,4.25
2023-05-20T03:37:05.876Z,3.22
2023-05-20T03:39:33.130Z,4.43
2023-05-20T03:42:00.185Z,2.83
2023-05-20T03:44:27.875Z,3.53
2023-05-20T03:46:54.898Z,3.13
2023-05-20T03:49:22.219Z,4.18
2023-05-20T03:51:49.399Z,3.53
2023-05-20T03:54:17.476Z,3.42
2023-05-20T03:56:47.031Z,3.22
2023-05-20T03:59:14.317Z,3.53
2023-05-20T04:01:41.438Z,3.50
2023-05-20T04:04:09.120Z,3.40
2023-05-20T04:06:36.212Z,3.67
2023-05-20T04:09:04.077Z,2.92
2023-05-20T04:11:31.071Z,3.80
2023-05-20T04:14:01.257Z,3.03
2023-05-20T04:16:29.674Z,3.80
2023-05-20T04:18:59.222Z,3.33
2023-05-20T04:21:26.441Z,3.70
2023-05-20T04:23:53.903Z,3.45
2023-05-20T04:26:20.921Z,3.28
2023-05-20T04:28:51.177Z,4.38
2023-05-20T04:31:18.732Z,4.57
2023-05-20T04:33:46.752Z,3.80
2023-05-20T04:36:16.356Z,4.45
2023-05-20T04:38:44.784Z,3.58
2023-05-20T04:41:11.828Z,3.97
2023-05-20T04:43:40.330Z,4.18
2023-05-20T04:46:07.765Z,3.22
2023-05-20T04:48:35.377Z,4.30
2023-05-20T04:51:03.416Z,3.70
2023-05-20T04:53:30.764Z,4.68
2023-05-20T04:55:57.853Z,4.28
2023-05-20T04:58:25.342Z,3.72
2023-05-20T05:00:52.825Z,4.40
2023-05-20T05:03:20.153Z,3.25
2023-05-20T05:05:47.153Z,3.88
2023-05-20T05:08:14.669Z,4.10
2023-05-20T05:10:41.625Z,4.15
2023-05-20T05:13:08.890Z,3.83
2023-05-20T05:15:36.006Z,3.33
2023-05-20T05:18:03.897Z,3.97
2023-05-20T05:20:30.945Z,3.20
2023-05-20T05:22:58.210Z,3.85
2023-05-20T05:25:25.268Z,4.30
2023-05-20T05:27:52.663Z,4.03
2023-05-20T05:30:19.792Z,4.68
2023-05-20T05:32:47.586Z,4.43
2023-05-20T05:35:14.719Z,4.63
2023-05-20T05:37:41.969Z,4.97
2023-05-20T05:40:09.357Z,4.57
2023-05-20T05:42:36.879Z,4.43
2023-05-20T05:45:04.167Z,4.47
2023-05-20T05:47:32.843Z,4.95
2023-05-20T05:50:00.142Z,4.57
2023-05-20T05:52:27.940Z,4.53
2023-05-20T05:54:55.652Z,4.43
2023-05-20T05:57:23.079Z,5.32
2023-05-20T05:59:50.129Z,4.45
2023-05-20T06:02:17.625Z,4.95
2023-05-20T06:04:44.965Z,5.45
2023-05-20T06:07:12.336Z,4.57
2023-05-20T06:09:39.960Z,4.45
2023-05-20T06:12:07.539Z,3.70
2023-05-20T06:14:34.599Z,4.50
2023-05-20T06:17:04.143Z,4.85
2023-05-20T06:19:31.199Z,4.60
2023-05-20T06:21:58.934Z,3.88
2023-05-20T06:24:25.968Z,3.88
2023-05-20T06:26:53.314Z,4.47
2023-05-20T06:29:20.889Z,4.55
2023-05-20T06:31:48.249Z,4.57
2023-05-20T06:34:15.414Z,4.43
2023-05-20T06:36:42.759Z,3.63
2023-05-20T06:39:12.534Z,4.13
2023-05-20T06:41:40.347Z,3.78
2023-05-20T06:44:07.750Z,3.50
2023-05-20T06:46:35.206Z,3.53
2023-05-20T06:49:02.255Z,4.15
2023-05-20T06:51:29.915Z,4.18
2023-05-20T06:53:56.982Z,3.38
2023-05-20T06:56:24.297Z,3.88
2023-05-20T06:58:51.424Z,3.53
2023-05-20T07:01:19.179Z,3.05
2023-05-20T07:03:46.382Z,4.15
2023-05-20T07:06:13.958Z,3.17
2023-05-20T07:08:41.260Z,2.97
2023-05-20T07:11:08.797Z,3.33
2023-05-20T07:13:35.952Z,3.47
2023-05-20T07:16:03.509Z,3.40
2023-05-20T07:18:30.507Z,3.80
2023-05-20T07:20:58.046Z,3.95
2023-05-20T07:23:25.131Z,3.17
2023-05-20T07:25:53.703Z,3.25
2023-05-20T07:28:21.836Z,3.15
2023-05-20T07:30:50.523Z,2.92
2023-05-20T07:33:18.019Z,3.10
2023-05-20T07:35:46.096Z,3.15
2023-05-20T07:38:13.198Z,4.05
2023-05-20T07:40:41.514Z,3.42
2023-05-20T07:43:09.646Z,3.45
2023-05-20T07:45:37.483Z,3.63
2023-05-20T07:48:05.347Z,3.45
2023-05-20T07:50:33.381Z,3.22
2023-05-20T07:53:00.370Z,4.05
2023-05-20T07:55:27.900Z,3.88
2023-05-20T07:57:55.063Z,3.90
2023-05-20T08:00:22.632Z,3.22
2023-05-20T08:02:49.876Z,4.50
2023-05-20T08:05:17.743Z,4.00
2023-05-20T08:07:45.072Z,3.58
2023-05-20T08:10:12.661Z,3.63
2023-05-20T08:12:39.828Z,3.45
2023-05-20T08:15:07.754Z,3.97
2023-05-20T08:17:35.309Z,5.38
2023-05-20T08:20:02.770Z,4.60
2023-05-20T08:22:29.775Z,4.70
2023-05-20T08:24:57.327Z,4.45
2023-05-20T08:27:24.917Z,6.30
2023-05-20T08:29:52.232Z,5.60
2023-05-20T08:32:19.426Z,5.00
2023-05-20T08:34:49.222Z,5.95
2023-05-20T08:37:16.703Z,6.45
2023-05-20T08:39:46.596Z,6.60
2023-05-20T08:42:13.861Z,5.45
2023-05-20T08:44:42.264Z,6.55
2023-05-20T08:47:10.360Z,6.63
2023-05-20T08:49:38.416Z,6.65
2023-05-20T08:52:09.396Z,6.95
2023-05-20T08:54:46.116Z,6.90
2023-05-20T08:57:16.514Z,7.45
2023-05-20T08:59:46.998Z,6.90
2023-05-20T09:02:14.348Z,7.53
2023-05-20T09:04:42.159Z,5.95
2023-05-20T09:07:09.374Z,6.93
2023-05-20T09:09:36.875Z,7.50
2023-05-20T09:12:04.313Z,6.72
2023-05-20T09:14:32.666Z,7.75
2023-05-20T09:17:00.201Z,6.97
2023-05-20T09:19:27.852Z,6.10
2023-05-20T09:21:55.494Z,6.40
2023-05-20T09:24:27.270Z,6.03
2023-05-20T09:26:54.742Z,5.85
2023-05-20T09:29:23.226Z,5.50
2023-05-20T09:31:52.126Z,5.32
2023-05-20T09:34:21.237Z,6.35
2023-05-20T09:36:51.088Z,5.60
2023-05-20T09:39:26.138Z,6.65
2023-05-20T09:42:03.977Z,5.45
2023-05-20T09:44:32.476Z,5.43
2023-05-20T09:47:01.254Z,6.13
2023-05-20T09:49:31.247Z,5.65
2023-05-20T09:52:01.505Z,5.20
2023-05-20T09:54:30.035Z,5.28
2023-05-20T09:57:00.198Z,5.65
2023-05-20T09:59:27.929Z,6.03
2023-05-20T10:01:55.198Z,5.80
2023-05-20T10:04:24.476Z,4.95
2023-05-20T10:07:07.011Z,4.90
2023-05-20T10:09:53.181Z,5.05
2023-05-20T10:12:44.681Z,4.82
2023-05-20T10:15:27.346Z,5.18
2023-05-20T10:18:25.830Z,5.05
2023-05-20T10:20:53.493Z,5.22
2023-05-20T10:23:38.906Z,4.78
2023-05-20T10:26:07.493Z,5.20
2023-05-20T10:28:36.820Z,5.18
2023-05-20T10:31:23.699Z,5.95
2023-05-20T10:33:53.475Z,5.78
2023-05-20T10:36:27.102Z,5.30
2023-05-20T10:38:59.050Z,5.18
2023-05-20T10:44:06.265Z,6.15
2023-05-20T10:46:44.193Z,5.55
2023-05-20T10:49:25.053Z,6.03
2023-05-20T10:51:54.569Z,5.15
2023-05-20T10:54:23.015Z,5.30
2023-05-20T10:56:54.209Z,5.75
2023-05-20T10:59:22.105Z,5.65
2023-05-20T11:01:50.499Z,5.18
2023-05-20T11:04:18.110Z,5.80
2023-05-20T11:06:56.134Z,5.32
2023-05-20T11:09:23.768Z,5.45
2023-05-20T11:11:55.322Z,6.28
2023-05-20T11:14:22.679Z,6.82
2023-05-20T11:16:56.386Z,5.50
2023-05-20T11:19:23.801Z,5.88
2023-05-20T11:21:51.725Z,4.70
2023-05-20T11:24:27.442Z,5.78
2023-05-20T11:26:58.277Z,5.18
2023-05-20T11:29:27.289Z,5.45
2023-05-20T11:31:56.441Z,5.00
2023-05-20T11:34:26.429Z,5.72
2023-05-20T11:36:58.946Z,5.38
2023-05-20T11:39:30.243Z,5.53
2023-05-20T11:41:59.092Z,5.38
2023-05-20T11:44:26.493Z,5.35
2023-05-20T11:47:04.295Z,5.72
2023-05-20T11:49:40.352Z,5.43
2023-05-20T11:52:10.470Z,5.22
2023-05-20T11:54:37.644Z,5.68
2023-05-20T11:57:07.108Z,5.43
2023-05-20T11:59:35.094Z,5.72
2023-05-20T12:02:02.542Z,5.80
2023-05-20T12:04:29.741Z,6.20
2023-05-20T12:06:57.461Z,6.20
2023-05-20T12:09:24.726Z,6.60
2023-05-20T12:11:52.717Z,5.25
2023-05-20T12:14:19.964Z,5.55
2023-05-20T12:16:47.417Z,6.95
2023-05-20T12:19:14.900Z,6.18
2023-05-20T12:21:42.761Z,6.40
2023-05-20T12:24:11.313Z,6.70
2023-05-20T12:26:38.770Z,7.63
2023-05-20T12:29:07.063Z,6.28
2023-05-20T12:31:35.241Z,6.30
2023-05-20T12:34:03.014Z,7.97
2023-05-20T12:36:31.837Z,6.05
2023-05-20T12:38:59.167Z,6.65
2023-05-20T12:41:26.659Z,6.78
2023-05-20T12:43:54.525Z,7.60
2023-05-20T12:46:22.083Z,6.60
2023-05-20T12:48:49.410Z,7.10
2023-05-20T12:51:16.964Z,6.85
2023-05-20T12:53:44.514Z,6.82
2023-05-20T12:56:12.668Z,6.15
2023-05-20T12:58:39.718Z,5.57
2023-05-20T13:01:07.546Z,5.40
2023-05-20T13:03:35.034Z,5.45
2023-05-20T13:06:04.056Z,6.32
2023-05-20T13:08:31.376Z,6.05
2023-05-20T13:10:59.031Z,5.82
2023-05-20T13:13:26.353Z,6.00
2023-05-20T13:15:54.814Z,4.90
2023-05-20T13:18:22.785Z,5.47
2023-05-20T13:20:50.595Z,5.35
2023-05-20T13:23:17.947Z,5.45
2023-05-20T13:25:45.891Z,5.40
2023-05-20T13:28:16.770Z,5.72
2023-05-20T13:30:44.698Z,5.20
2023-05-20T13:33:12.040Z,5.57
2023-05-20T13:35:39.681Z,5.50
2023-05-20T13:38:07.041Z,5.43
2023-05-20T13:40:35.341Z,5.38
2023-05-20T13:43:02.896Z,4.78
2023-05-20T13:45:30.306Z,5.22
2023-05-20T13:47:57.546Z,5.00
2023-05-20T13:50:26.381Z,5.10
2023-05-20T13:52:53.555Z,4.53
2023-05-20T13:55:23.969Z,4.93
2023-05-20T13:57:54.410Z,4.72
2023-05-20T14:00:22.049Z,4.65
2023-05-20T14:02:49.490Z,4.00
2023-05-20T14:05:18.896Z,4.70
2023-05-20T14:07:46.255Z,4.07
2023-05-20T14:10:14.100Z,4.05
2023-05-20T14:12:43.068Z,3.67
2023-05-20T14:15:11.097Z,4.70
2023-05-20T14:17:38.418Z,4.32
2023-05-20T14:20:07.072Z,4.63
2023-05-20T14:22:34.440Z,3.30
2023-05-20T14:25:02.119Z,3.85
2023-05-20T14:27:30.464Z,4.15
2023-05-20T14:29:58.213Z,4.10
2023-05-20T14:32:25.463Z,4.38
2023-05-20T14:34:53.961Z,4.53
2023-05-20T14:37:21.040Z,4.10
2023-05-20T14:39:48.860Z,4.13
2023-05-20T14:42:16.920Z,4.43
2023-05-20T14:44:44.534Z,3.92
2023-05-20T14:47:12.223Z,4.40
2023-05-20T14:49:42.336Z,4.78
2023-05-20T14:52:09.523Z,4.03
2023-05-20T14:54:37.531Z,4.35
2023-05-20T14:57:06.715Z,4.30
2023-05-20T14:59:34.811Z,4.13
2023-05-20T15:02:02.023Z,3.45
2023-05-20T15:04:30.127Z,4.57
2023-05-20T15:06:57.311Z,4.53
2023-05-20T15:09:25.160Z,3.63
2023-05-20T15:11:52.817Z,4.50
2023-05-20T15:14:20.440Z,4.43
2023-05-20T15:16:47.819Z,4.63
2023-05-20T15:19:17.094Z,4.72
2023-05-20T15:21:44.311Z,4.13
2023-05-20T15:24:11.938Z,4.70
2023-05-20T15:26:40.700Z,3.92
2023-05-20T15:29:08.609Z,4.43
2023-05-20T15:31:36.863Z,4.57
2023-05-20T15:34:04.534Z,5.07
2023-05-20T15:36:31.968Z,4.95
2023-05-20T15:38:59.961Z,4.63
2023-05-20T15:41:27.182Z,4.78
2023-05-20T15:43:55.258Z,4.55
2023-05-20T15:46:24.266Z,4.25
2023-05-20T15:48:55.086Z,5.35
2023-05-20T15:51:23.367Z,4.45
2023-05-20T15:53:50.891Z,4.35
2023-05-20T15:56:18.365Z,4.50
2023-05-20T15:58:46.214Z,4.78
2023-05-20T16:01:13.491Z,5.35
2023-05-20T16:03:41.536Z,5.05
2023-05-20T16:06:10.850Z,4.63
2023-05-20T16:08:38.759Z,4.70
2023-05-20T16:11:06.153Z,5.50
2023-05-20T16:13:33.818Z,5.25
2023-05-20T16:16:03.336Z,4.93
2023-05-20T16:18:31.012Z,4.30
2023-05-20T16:20:58.421Z,4.22
2023-05-20T16:23:26.196Z,4.80
2023-05-20T16:25:53.271Z,5.40
2023-05-20T16:28:20.770Z,4.32
2023-05-20T16:30:48.092Z,4.88
2023-05-20T16:33:17.598Z,4.68
2023-05-20T16:35:44.863Z,4.50
2023-05-20T16:38:12.604Z,4.35
2023-05-20T16:40:39.885Z,4.38
2023-05-20T16:43:07.626Z,4.93
2023-05-20T16:45:35.050Z,4.82
2023-05-20T16:48:02.607Z,4.93
2023-05-20T16:50:29.929Z,4.30
2023-05-20T16:52:59.068Z,4.65
2023-05-20T16:55:26.523Z,4.20
2023-05-20T16:57:54.569Z,4.78
2023-05-20T17:00:21.784Z,4.20
2023-05-20T17:02:49.843Z,4.35
2023-05-20T17:05:17.207Z,4.22
2023-05-20T17:07:45.033Z,4.88
2023-05-20T17:10:12.181Z,4.47
2023-05-20T17:12:39.900Z,4.40
2023-05-20T17:15:07.779Z,4.20
2023-05-20T17:17:35.194Z,4.90
2023-05-20T17:20:02.408Z,4.95
2023-05-20T17:22:29.894Z,4.50
2023-05-20T17:24:57.081Z,3.88
2023-05-20T17:27:24.823Z,3.72
2023-05-20T17:29:52.016Z,4.25
2023-05-20T17:32:19.283Z,4.72
2023-05-20T17:34:46.446Z,5.32
2023-05-20T17:37:13.905Z,6.28
2023-05-20T17:39:43.031Z,6.35
2023-05-20T17:42:10.756Z,7.30
2023-05-20T17:44:37.936Z,6.55
2023-05-20T17:47:05.723Z,7.20
2023-05-20T17:49:32.868Z,7.35
2023-05-20T17:52:00.548Z,6.60
2023-05-20T17:54:27.999Z,5.97
2023-05-20T17:56:55.571Z,5.72
2023-05-20T17:59:23.096Z,5.07
2023-05-20T18:01:51.267Z,4.88
2023-05-20T18:04:18.600Z,5.18
2023-05-20T18:06:46.526Z,4.38
2023-05-20T18:09:13.873Z,4.88
2023-05-20T18:11:41.550Z,5.03
2023-05-20T18:14:08.732Z,4.43
2023-05-20T18:16:36.204Z,4.53
2023-05-20T18:19:03.680Z,5.15
2023-05-20T18:21:31.288Z,5.82
2023-05-20T18:23:58.408Z,5.85
2023-05-20T18:26:26.568Z,5.20
2023-05-20T18:28:53.822Z,5.30
2023-05-20T18:31:21.411Z,4.47
2023-05-20T18:33:48.622Z,5.95
2023-05-20T18:36:16.473Z,7.65
2023-05-20T18:38:45.044Z,9.13
2023-05-20T18:41:13.150Z,6.93
2023-05-20T18:43:40.376Z,6.10
2023-05-20T18:46:08.862Z,6.13
2023-05-20T18:48:36.013Z,6.00
2023-05-20T18:51:03.741Z,5.57
2023-05-20T18:53:31.178Z,5.88
2023-05-20T18:56:03.224Z,5.88
2023-05-20T18:58:30.617Z,5.38
2023-05-20T19:00:58.232Z,5.90
2023-05-20T19:03:26.418Z,5.55
2023-05-20T19:05:54.133Z,6.20
2023-05-20T19:08:23.286Z,5.80
2023-05-20T19:10:51.151Z,5.30
2023-05-20T19:13:18.579Z,6.32
2023-05-20T19:15:46.179Z,5.30
2023-05-20T19:18:14.214Z,4.60
2023-05-20T19:20:42.190Z,5.97
2023-05-20T19:23:09.260Z,6.03
2023-05-20T19:25:37.322Z,6.40
2023-05-20T19:28:05.229Z,6.45
2023-05-20T19:30:32.850Z,6.35
2023-05-20T19:33:02.366Z,5.60
2023-05-20T19:35:30.033Z,5.90
2023-05-20T19:37:57.270Z,6.95
2023-05-20T19:40:24.976Z,5.90
2023-05-20T19:42:52.511Z,5.90
2023-05-20T19:45:21.813Z,5.32
2023-05-20T19:47:50.039Z,5.10
2023-05-20T19:50:17.553Z,5.93
2023-05-20T19:52:44.588Z,5.68
2023-05-20T19:55:12.060Z,5.05
2023-05-20T19:57:39.394Z,5.28
2023-05-20T20:00:07.833Z,5.00
2023-05-20T20:02:34.835Z,5.10
2023-05-20T20:05:04.458Z,4.97
2023-05-20T20:07:32.193Z,5.32
2023-05-20T20:09:59.731Z,5.28
2023-05-20T20:12:26.877Z,5.13
2023-05-20T20:14:54.368Z,6.07
2023-05-20T20:17:23.418Z,4.82
2023-05-20T20:19:53.093Z,4.95
2023-05-20T20:22:20.358Z,5.18
2023-05-20T20:24:47.769Z,5.20
2023-05-20T20:27:14.857Z,4.53
2023-05-20T20:29:42.768Z,5.45
2023-05-20T20:32:09.968Z,5.32
2023-05-20T20:34:37.484Z,6.22
2023-05-20T20:37:06.646Z,5.70
2023-05-20T20:39:38.625Z,4.72
2023-05-20T20:42:06.625Z,5.10
2023-05-20T20:44:33.918Z,5.18
2023-05-20T20:47:04.099Z,5.15
2023-05-20T20:49:32.223Z,5.38
2023-05-20T20:51:59.377Z,4.78
2023-05-20T20:54:26.961Z,5.22
2023-05-20T20:56:56.662Z,5.22
2023-05-20T20:59:26.599Z,4.88
2023-05-20T21:01:54.302Z,5.32
2023-05-20T21:04:21.704Z,4.88
2023-05-20T21:06:48.790Z,6.00
2023-05-20T21:09:16.419Z,4.97
2023-05-20T21:11:45.423Z,4.95
2023-05-20T21:14:13.479Z,4.72
2023-05-20T21:16:42.192Z,5.15
2023-05-20T21:19:10.028Z,4.85
2023-05-20T21:21:37.104Z,5.65
2023-05-20T21:24:04.449Z,4.95
2023-05-20T21:26:31.496Z,4.88
2023-05-20T21:29:01.511Z,4.90
2023-05-20T21:31:28.612Z,4.57
2023-05-20T21:33:56.274Z,4.10
2023-05-20T21:36:23.254Z,4.63
2023-05-20T21:38:50.588Z,4.50
2023-05-20T21:41:17.564Z,5.10
2023-05-20T21:43:44.868Z,3.60
2023-05-20T21:46:11.993Z,4.40
2023-05-20T21:48:39.720Z,4.65
2023-05-20T21:51:07.912Z,3.80
2023-05-20T21:53:35.427Z,4.00
2023-05-20T21:56:02.753Z,4.35
2023-05-20T21:58:30.049Z,4.20
2023-05-20T22:00:57.237Z,4.53
2023-05-20T22:03:25.219Z,4.30
2023-05-20T22:05:52.709Z,4.30
2023-05-20T22:08:20.094Z,4.28
2023-05-20T22:10:47.141Z,5.18
2023-05-20T22:13:14.924Z,4.55
2023-05-20T22:15:42.187Z,4.95
2023-05-20T22:18:09.746Z,4.57
2023-05-20T22:20:38.505Z,4.40
2023-05-20T22:23:05.986Z,4.13
2023-05-20T22:25:33.174Z,4.18
2023-05-20T22:28:01.402Z,3.97
2023-05-20T22:30:28.504Z,4.53
2023-05-20T22:32:56.313Z,4.25
2023-05-20T22:35:23.798Z,4.47
2023-05-20T22:37:51.456Z,4.35
2023-05-20T22:40:18.419Z,4.57
2023-05-20T22:42:45.812Z,4.13
2023-05-20T22:45:12.776Z,4.85
2023-05-20T22:47:40.139Z,4.00
2023-05-20T22:50:08.247Z,5.35
2023-05-20T22:52:36.940Z,4.43
2023-05-20T22:55:04.207Z,5.05
2023-05-20T22:57:31.492Z,4.65
2023-05-20T22:59:58.577Z,4.63
2023-05-20T23:02:26.434Z,4.28
2023-05-20T23:04:53.680Z,4.10
2023-05-20T23:07:21.860Z,4.32
2023-05-20T23:09:49.068Z,4.20
2023-05-20T23:12:16.408Z,4.57
2023-05-20T23:14:43.526Z,4.10
2023-05-20T23:17:10.890Z,4.03
2023-05-20T23:19:37.924Z,4.25
2023-05-20T23:22:05.558Z,4.38
2023-05-20T23:24:32.607Z,4.35
2023-05-20T23:27:00.267Z,4.85
2023-05-20T23:29:27.267Z,6.00
2023-05-20T23:31:54.650Z,4.85
2023-05-20T23:34:22.025Z,5.50
2023-05-20T23:36:49.975Z,5.10
2023-05-20T23:39:18.339Z,5.28
2023-05-20T23:41:46.121Z,4.97
2023-05-20T23:44:13.098Z,5.05
2023-05-20T23:46:41.815Z,4.75
2023-05-20T23:49:10.257Z,5.78
2023-05-20T23:51:37.598Z,5.30
2023-05-20T23:54:04.759Z,6.00
2023-05-20T23:56:32.166Z,6.18
2023-05-20T23:58:59.195Z,5.82
